createdAt,value
2018-02-18T00:00:25.142Z,1.65
2018-02-18T00:01:25.126Z,1.60
2018-02-18T00:02:25.118Z,1.51
2018-02-18T00:03:25.100Z,1.52
2018-02-18T00:04:25.088Z,1.55
2018-02-18T00:05:46.079Z,1.55
2018-02-18T00:06:25.053Z,1.51
2018-02-18T00:07:25.045Z,1.52
2018-02-18T00:08:25.023Z,1.62
2018-02-18T00:09:25.007Z,1.54
2018-02-18T00:10:24.988Z,1.58
2018-02-18T00:11:45.977Z,1.51
2018-02-18T00:12:24.960Z,1.59
2018-02-18T00:13:24.947Z,1.62
2018-02-18T00:14:24.929Z,1.63
2018-02-18T00:15:24.914Z,1.63
2018-02-18T00:16:24.897Z,1.59
2018-02-18T00:17:45.881Z,1.60
2018-02-18T00:18:24.868Z,1.63
2018-02-18T00:19:24.845Z,1.58
2018-02-18T00:20:24.837Z,1.63
2018-02-18T00:21:24.819Z,1.65
2018-02-18T00:22:24.807Z,1.55
2018-02-18T00:23:45.792Z,1.60
2018-02-18T00:24:24.771Z,1.58
2018-02-18T00:25:24.757Z,1.63
2018-02-18T00:26:24.739Z,1.60
2018-02-18T00:27:24.725Z,1.68
2018-02-18T00:28:24.715Z,1.69
2018-02-18T00:29:45.695Z,1.72
2018-02-18T00:30:24.673Z,1.81
2018-02-18T00:31:24.663Z,1.80
2018-02-18T00:32:24.645Z,1.84
2018-02-18T00:33:24.629Z,1.84
2018-02-18T00:34:24.609Z,1.90
2018-02-18T00:35:45.613Z,1.80
2018-02-18T00:36:24.579Z,1.88
2018-02-18T00:37:24.573Z,1.90
2018-02-18T00:38:24.547Z,1.90
2018-02-18T00:39:24.540Z,1.95
2018-02-18T00:40:24.514Z,2.02
2018-02-18T00:41:45.506Z,1.99
2018-02-18T00:42:24.489Z,2.02
2018-02-18T00:43:24.473Z,2.02
2018-02-18T00:44:24.466Z,2.09
2018-02-18T00:45:24.447Z,2.09
2018-02-18T00:46:24.429Z,1.86
2018-02-18T00:47:45.415Z,1.86
2018-02-18T00:48:24.391Z,1.86
2018-02-18T00:49:24.375Z,1.83
2018-02-18T00:50:24.358Z,1.72
2018-02-18T00:51:24.345Z,1.80
2018-02-18T00:52:24.335Z,1.76
2018-02-18T00:53:45.331Z,1.66
2018-02-18T00:54:24.303Z,1.72
2018-02-18T00:55:24.293Z,1.65
2018-02-18T00:56:24.274Z,1.54
2018-02-18T00:57:24.259Z,1.55
2018-02-18T00:58:24.241Z,1.55
2018-02-18T00:59:45.228Z,1.55
2018-02-18T01:00:24.215Z,1.50
2018-02-18T01:01:24.193Z,1.54
2018-02-18T01:02:24.174Z,1.45
2018-02-18T01:03:24.163Z,1.47
2018-02-18T01:04:24.146Z,1.52
2018-02-18T01:05:45.141Z,1.59
2018-02-18T01:06:24.115Z,1.54
2018-02-18T01:07:24.101Z,1.52
2018-02-18T01:08:24.085Z,1.58
2018-02-18T01:09:24.071Z,1.55
2018-02-18T01:10:24.052Z,1.55
2018-02-18T01:11:45.050Z,1.48
2018-02-18T01:12:24.027Z,1.55
2018-02-18T01:13:24.062Z,1.52
2018-02-18T01:14:23.991Z,1.51
2018-02-18T01:15:23.980Z,1.50
2018-02-18T01:16:23.957Z,1.52
2018-02-18T01:17:44.947Z,1.58
2018-02-18T01:18:23.933Z,1.55
2018-02-18T01:19:23.913Z,1.51
2018-02-18T01:20:23.895Z,1.52
2018-02-18T01:21:23.883Z,1.54
2018-02-18T01:22:23.863Z,1.55
2018-02-18T01:23:44.855Z,1.51
2018-02-18T01:24:23.831Z,1.51
2018-02-18T01:25:23.816Z,1.55
2018-02-18T01:26:23.803Z,1.65
2018-02-18T01:27:23.795Z,1.60
2018-02-18T01:28:23.771Z,1.60
2018-02-18T01:29:44.763Z,1.68
2018-02-18T01:30:23.740Z,1.69
2018-02-18T01:31:23.723Z,1.70
2018-02-18T01:32:23.708Z,1.65
2018-02-18T01:33:23.685Z,1.79
2018-02-18T01:34:23.676Z,1.72
2018-02-18T01:35:44.675Z,1.83
2018-02-18T01:36:23.643Z,1.86
2018-02-18T01:37:23.635Z,1.87
2018-02-18T01:38:23.619Z,1.83
2018-02-18T01:39:23.607Z,1.84
2018-02-18T01:40:23.585Z,1.70
2018-02-18T01:41:44.571Z,1.73
2018-02-18T01:42:23.551Z,1.72
2018-02-18T01:43:23.538Z,1.77
2018-02-18T01:44:23.523Z,1.84
2018-02-18T01:45:23.505Z,1.80
2018-02-18T01:46:23.488Z,1.83
2018-02-18T01:47:44.471Z,1.88
2018-02-18T01:48:23.457Z,1.80
2018-02-18T01:49:23.451Z,1.88
2018-02-18T01:50:23.431Z,1.84
2018-02-18T01:51:23.413Z,1.73
2018-02-18T01:52:23.394Z,1.79
2018-02-18T01:53:44.385Z,1.76
2018-02-18T01:54:23.363Z,1.83
2018-02-18T01:55:23.349Z,1.80
2018-02-18T01:56:23.341Z,1.69
2018-02-18T01:57:23.319Z,1.73
2018-02-18T01:58:23.297Z,1.68
2018-02-18T01:59:44.292Z,1.66
2018-02-18T02:00:23.273Z,1.51
2018-02-18T02:01:23.257Z,1.51
2018-02-18T02:02:23.241Z,1.50
2018-02-18T02:03:23.225Z,1.47
2018-02-18T02:04:23.206Z,1.44
2018-02-18T02:05:44.195Z,1.42
2018-02-18T02:06:23.184Z,1.33
2018-02-18T02:07:23.163Z,1.50
2018-02-18T02:08:23.141Z,1.47
2018-02-18T02:09:23.133Z,1.37
2018-02-18T02:10:23.117Z,1.44
2018-02-18T02:11:44.103Z,1.42
2018-02-18T02:12:23.085Z,1.41
2018-02-18T02:13:23.080Z,1.48
2018-02-18T02:14:23.058Z,1.51
2018-02-18T02:15:23.037Z,1.51
2018-02-18T02:16:23.021Z,1.54
2018-02-18T02:17:44.007Z,1.48
2018-02-18T02:18:22.996Z,1.41
2018-02-18T02:19:22.981Z,1.48
2018-02-18T02:20:22.957Z,1.44
2018-02-18T02:21:22.945Z,1.47
2018-02-18T02:22:22.929Z,1.44
2018-02-18T02:23:43.915Z,1.41
2018-02-18T02:24:22.901Z,1.41
2018-02-18T02:25:22.883Z,1.47
2018-02-18T02:26:22.865Z,1.44
2018-02-18T02:27:22.851Z,1.50
2018-02-18T02:28:22.843Z,1.44
2018-02-18T02:29:43.824Z,1.41
2018-02-18T02:30:22.813Z,1.45
2018-02-18T02:31:22.790Z,1.42
2018-02-18T02:32:22.778Z,1.40
2018-02-18T02:33:22.757Z,1.40
2018-02-18T02:34:22.739Z,1.29
2018-02-18T02:35:43.727Z,1.37
2018-02-18T02:36:22.710Z,1.33
2018-02-18T02:37:22.697Z,1.36
2018-02-18T02:38:22.683Z,1.30
2018-02-18T02:39:22.668Z,1.30
2018-02-18T02:40:22.647Z,1.29
2018-02-18T02:41:43.640Z,1.40
2018-02-18T02:42:22.614Z,1.30
2018-02-18T02:43:22.602Z,1.30
2018-02-18T02:44:22.609Z,1.32
2018-02-18T02:45:22.567Z,1.37
2018-02-18T02:46:22.560Z,1.36
2018-02-18T02:47:43.545Z,1.41
2018-02-18T02:48:22.518Z,1.36
2018-02-18T02:49:22.512Z,1.36
2018-02-18T02:50:22.486Z,1.37
2018-02-18T02:51:22.471Z,1.37
2018-02-18T02:52:22.456Z,1.26
2018-02-18T02:53:43.452Z,1.22
2018-02-18T02:54:22.429Z,0.96
2018-02-18T02:55:22.407Z,0.98
2018-02-18T02:56:22.395Z,1.04
2018-02-18T02:57:22.376Z,0.96
2018-02-18T02:58:22.365Z,0.91
2018-02-18T02:59:43.351Z,0.86
2018-02-18T03:00:22.333Z,0.73
2018-02-18T03:01:22.318Z,0.70
2018-02-18T03:02:22.301Z,0.69
2018-02-18T03:03:22.286Z,0.72
2018-02-18T03:04:22.267Z,0.58
2018-02-18T03:05:43.255Z,0.65
2018-02-18T03:06:22.241Z,0.47
2018-02-18T03:07:22.226Z,0.29
2018-02-18T03:08:22.207Z,0.26
2018-02-18T03:09:22.189Z,0.23
2018-02-18T03:10:22.180Z,0.17
2018-02-18T03:11:43.159Z,0.04
2018-02-18T03:12:22.143Z,0.08
2018-02-18T03:13:22.126Z,0.15
2018-02-18T03:14:22.112Z,0.11
2018-02-18T03:15:22.093Z,0.28
2018-02-18T03:16:22.078Z,0.24
2018-02-18T03:17:43.068Z,0.26
2018-02-18T03:18:22.046Z,0.20
2018-02-18T03:19:22.032Z,0.26
2018-02-18T03:20:22.017Z,0.38
2018-02-18T03:21:22.000Z,0.44
2018-02-18T03:22:21.977Z,0.44
2018-02-18T03:23:42.963Z,0.39
2018-02-18T03:24:21.949Z,0.47
2018-02-18T03:25:21.933Z,0.39
2018-02-18T03:26:21.915Z,0.49
2018-02-18T03:27:21.897Z,0.47
2018-02-18T03:28:21.887Z,0.49
2018-02-18T03:29:42.878Z,0.49
2018-02-18T03:30:21.853Z,0.51
2018-02-18T03:31:21.828Z,0.44
2018-02-18T03:32:21.816Z,0.46
2018-02-18T03:33:21.795Z,0.44
2018-02-18T03:34:21.790Z,0.38
2018-02-18T03:35:42.771Z,0.38
2018-02-18T03:36:21.752Z,0.29
2018-02-18T03:37:21.733Z,0.29
2018-02-18T03:38:21.716Z,0.35
2018-02-18T03:39:21.701Z,0.29
2018-02-18T03:40:21.686Z,0.28
2018-02-18T03:41:42.668Z,0.31
2018-02-18T03:42:21.654Z,0.28
2018-02-18T03:43:21.635Z,0.33
2018-02-18T03:44:21.618Z,0.15
2018-02-18T03:45:21.601Z,0.18
2018-02-18T03:46:21.585Z,0.24
2018-02-18T03:47:42.571Z,0.20
2018-02-18T03:48:21.556Z,0.29
2018-02-18T03:49:21.534Z,0.28
2018-02-18T03:50:21.530Z,0.33
2018-02-18T03:51:21.503Z,0.46
2018-02-18T03:52:21.488Z,0.42
2018-02-18T03:53:42.475Z,0.38
2018-02-18T03:54:21.454Z,0.44
2018-02-18T03:55:21.441Z,0.50
2018-02-18T03:56:21.422Z,0.50
2018-02-18T03:57:21.402Z,0.47
2018-02-18T03:58:21.390Z,0.51
2018-02-18T03:59:42.376Z,0.61
2018-02-18T04:00:21.351Z,0.57
2018-02-18T04:01:21.336Z,0.55
2018-02-18T04:02:21.320Z,0.50
2018-02-18T04:03:21.306Z,0.50
2018-02-18T04:04:21.288Z,0.49
2018-02-18T04:05:42.279Z,0.47
2018-02-18T04:06:21.261Z,0.47
2018-02-18T04:07:21.256Z,0.47
2018-02-18T04:08:21.224Z,0.49
2018-02-18T04:09:21.204Z,0.53
2018-02-18T04:10:21.190Z,0.53
2018-02-18T04:11:42.178Z,0.53
2018-02-18T04:12:21.163Z,0.61
2018-02-18T04:13:21.144Z,0.57
2018-02-18T04:14:21.123Z,0.51
2018-02-18T04:15:21.111Z,0.49
2018-02-18T04:16:21.090Z,0.50
2018-02-18T04:17:42.081Z,0.53
2018-02-18T04:18:21.057Z,0.58
2018-02-18T04:19:21.044Z,0.61
2018-02-18T04:20:21.026Z,0.55
2018-02-18T04:21:21.018Z,0.39
2018-02-18T04:22:20.996Z,0.35
2018-02-18T04:23:41.983Z,0.24
2018-02-18T04:24:20.968Z,0.15
2018-02-18T04:25:20.947Z,0.08
2018-02-18T04:26:20.932Z,0.04
2018-02-18T04:27:20.916Z,0.00
2018-02-18T04:28:20.890Z,-0.04
2018-02-18T04:29:41.881Z,-0.07
2018-02-18T04:30:20.862Z,-0.05
2018-02-18T04:31:20.848Z,-0.07
2018-02-18T04:32:20.827Z,-0.14
2018-02-18T04:33:20.814Z,-0.08
2018-02-18T04:34:20.796Z,-0.23
2018-02-18T04:35:41.787Z,-0.21
2018-02-18T04:36:20.768Z,-0.15
2018-02-18T04:37:20.752Z,-0.18
2018-02-18T04:38:20.734Z,-0.16
2018-02-18T04:39:20.717Z,-0.11
2018-02-18T04:40:20.699Z,-0.07
2018-02-18T04:41:41.686Z,-0.01
2018-02-18T04:42:20.671Z,0.03
2018-02-18T04:43:20.649Z,0.03
2018-02-18T04:44:20.630Z,-0.04
2018-02-18T04:45:20.614Z,0.02
2018-02-18T04:46:20.602Z,0.11
2018-02-18T04:47:41.601Z,0.15
2018-02-18T04:48:20.564Z,0.24
2018-02-18T04:49:20.549Z,0.26
2018-02-18T04:50:20.532Z,0.28
2018-02-18T04:51:20.515Z,0.26
2018-02-18T04:52:20.498Z,0.28
2018-02-18T04:53:41.483Z,0.21
2018-02-18T04:54:20.466Z,0.17
2018-02-18T04:55:20.452Z,0.07
2018-02-18T04:56:20.436Z,0.10
2018-02-18T04:57:20.417Z,0.11
2018-02-18T04:58:20.404Z,0.15
2018-02-18T04:59:41.386Z,0.18
2018-02-18T05:00:20.363Z,0.17
2018-02-18T05:01:20.347Z,0.14
2018-02-18T05:02:20.332Z,0.10
2018-02-18T05:03:20.322Z,0.10
2018-02-18T05:04:20.297Z,0.10
2018-02-18T05:05:41.290Z,0.14
2018-02-18T05:06:20.266Z,0.15
2018-02-18T05:07:20.247Z,0.29
2018-02-18T05:08:20.232Z,0.28
2018-02-18T05:09:20.224Z,0.23
2018-02-18T05:10:20.198Z,0.17
2018-02-18T05:11:41.188Z,0.14
2018-02-18T05:12:20.162Z,0.13
2018-02-18T05:13:20.152Z,0.07
2018-02-18T05:14:20.135Z,0.13
2018-02-18T05:15:20.124Z,0.08
2018-02-18T05:16:20.099Z,0.04
2018-02-18T05:17:41.086Z,0.08
2018-02-18T05:18:20.071Z,0.11
2018-02-18T05:19:20.050Z,0.03
2018-02-18T05:20:20.038Z,0.10
2018-02-18T05:21:20.022Z,0.13
2018-02-18T05:22:20.003Z,0.03
2018-02-18T05:23:40.984Z,0.08
2018-02-18T05:24:19.966Z,0.04
2018-02-18T05:25:19.949Z,0.07
2018-02-18T05:26:19.932Z,0.13
2018-02-18T05:27:19.916Z,0.08
2018-02-18T05:28:19.895Z,0.03
2018-02-18T05:29:40.898Z,0.07
2018-02-18T05:30:19.870Z,0.08
2018-02-18T05:31:19.852Z,0.10
2018-02-18T05:32:19.834Z,-0.03
2018-02-18T05:33:19.819Z,0.10
2018-02-18T05:34:19.811Z,0.00
2018-02-18T05:35:40.792Z,-0.07
2018-02-18T05:36:19.772Z,-0.18
2018-02-18T05:37:19.745Z,-0.19
2018-02-18T05:38:19.730Z,-0.19
2018-02-18T05:39:19.713Z,-0.16
2018-02-18T05:40:19.702Z,-0.21
2018-02-18T05:41:40.690Z,-0.21
2018-02-18T05:42:19.668Z,-0.18
2018-02-18T05:43:19.655Z,-0.04
2018-02-18T05:44:19.640Z,-0.05
2018-02-18T05:45:19.617Z,0.00
2018-02-18T05:46:19.602Z,0.07
2018-02-18T05:47:40.585Z,0.08
2018-02-18T05:48:19.570Z,0.04
2018-02-18T05:49:19.545Z,0.15
2018-02-18T05:50:19.534Z,0.28
2018-02-18T05:51:19.518Z,0.28
2018-02-18T05:52:19.496Z,0.18
2018-02-18T05:53:40.482Z,0.31
2018-02-18T05:54:19.476Z,0.23
2018-02-18T05:55:19.448Z,0.15
2018-02-18T05:56:19.434Z,0.20
2018-02-18T05:57:19.416Z,0.29
2018-02-18T05:58:19.407Z,0.29
2018-02-18T05:59:40.382Z,0.28
2018-02-18T06:00:19.369Z,0.24
2018-02-18T06:01:19.351Z,0.18
2018-02-18T06:02:19.334Z,0.20
2018-02-18T06:03:19.320Z,0.26
2018-02-18T06:04:19.304Z,0.15
2018-02-18T06:05:40.296Z,0.24
2018-02-18T06:06:19.272Z,0.31
2018-02-18T06:07:19.250Z,0.23
2018-02-18T06:08:19.232Z,0.23
2018-02-18T06:09:19.220Z,0.26
2018-02-18T06:10:19.200Z,0.28
2018-02-18T06:11:40.190Z,0.18
2018-02-18T06:12:19.166Z,0.23
2018-02-18T06:13:19.153Z,0.17
2018-02-18T06:14:19.135Z,0.15
2018-02-18T06:15:19.122Z,0.14
2018-02-18T06:16:19.101Z,-0.03
2018-02-18T06:17:40.093Z,-0.03
2018-02-18T06:18:19.070Z,-0.04
2018-02-18T06:19:19.058Z,-0.05
2018-02-18T06:20:19.036Z,-0.10
2018-02-18T06:21:19.022Z,-0.14
2018-02-18T06:22:19.002Z,-0.22
2018-02-18T06:23:39.990Z,-0.26
2018-02-18T06:24:18.970Z,-0.29
2018-02-18T06:25:18.961Z,-0.25
2018-02-18T06:26:18.932Z,-0.29
2018-02-18T06:27:18.920Z,-0.25
2018-02-18T06:28:18.898Z,-0.22
2018-02-18T06:29:39.892Z,-0.33
2018-02-18T06:30:18.877Z,-0.26
2018-02-18T06:31:18.855Z,-0.25
2018-02-18T06:32:18.838Z,-0.31
2018-02-18T06:33:18.824Z,-0.25
2018-02-18T06:34:18.806Z,-0.29
2018-02-18T06:35:39.788Z,-0.21
2018-02-18T06:36:18.774Z,-0.15
2018-02-18T06:37:18.750Z,-0.08
2018-02-18T06:38:18.736Z,-0.14
2018-02-18T06:39:18.719Z,-0.03
2018-02-18T06:40:18.698Z,-0.07
2018-02-18T06:41:39.692Z,-0.03
2018-02-18T06:42:18.678Z,0.02
2018-02-18T06:43:18.656Z,0.08
2018-02-18T06:44:18.638Z,0.11
2018-02-18T06:45:18.622Z,0.13
2018-02-18T06:46:18.608Z,0.26
2018-02-18T06:47:39.586Z,0.26
2018-02-18T06:48:18.572Z,0.31
2018-02-18T06:49:18.550Z,0.26
2018-02-18T06:50:18.538Z,0.28
2018-02-18T06:51:18.520Z,0.29
2018-02-18T06:52:18.504Z,0.38
2018-02-18T06:53:39.490Z,0.42
2018-02-18T06:54:18.468Z,0.44
2018-02-18T06:55:18.459Z,0.39
2018-02-18T06:56:18.434Z,0.47
2018-02-18T06:57:18.418Z,0.44
2018-02-18T06:58:18.405Z,0.49
2018-02-18T06:59:39.392Z,0.57
2018-02-18T07:00:18.370Z,0.53
2018-02-18T07:01:18.358Z,0.61
2018-02-18T07:02:18.347Z,0.51
2018-02-18T07:03:18.325Z,0.49
2018-02-18T07:04:18.302Z,0.46
2018-02-18T07:05:39.296Z,0.44
2018-02-18T07:06:18.271Z,0.39
2018-02-18T07:07:18.258Z,0.42
2018-02-18T07:08:18.236Z,0.38
2018-02-18T07:09:18.242Z,0.41
2018-02-18T07:10:18.206Z,0.29
2018-02-18T07:11:39.194Z,0.36
2018-02-18T07:12:18.172Z,0.51
2018-02-18T07:13:18.156Z,0.41
2018-02-18T07:14:18.144Z,0.47
2018-02-18T07:15:18.125Z,0.53
2018-02-18T07:16:18.105Z,0.58
2018-02-18T07:17:39.098Z,0.57
2018-02-18T07:18:18.078Z,0.53
2018-02-18T07:19:18.060Z,0.51
2018-02-18T07:20:18.040Z,0.49
2018-02-18T07:21:18.026Z,0.41
2018-02-18T07:22:18.012Z,0.41
2018-02-18T07:23:38.996Z,0.38
2018-02-18T07:24:17.977Z,0.29
2018-02-18T07:25:17.959Z,0.21
2018-02-18T07:26:17.940Z,0.18
2018-02-18T07:27:17.929Z,0.03
2018-02-18T07:28:17.914Z,0.18
2018-02-18T07:29:38.898Z,0.08
2018-02-18T07:30:17.877Z,0.07
2018-02-18T07:31:17.860Z,0.03
2018-02-18T07:32:17.846Z,0.03
2018-02-18T07:33:17.837Z,0.03
2018-02-18T07:34:17.820Z,0.03
2018-02-18T07:35:38.800Z,0.07
2018-02-18T07:36:17.791Z,0.02
2018-02-18T07:37:17.767Z,0.00
2018-02-18T07:38:17.747Z,0.04
2018-02-18T07:39:17.738Z,0.10
2018-02-18T07:40:17.716Z,0.04
2018-02-18T07:41:38.702Z,0.03
2018-02-18T07:42:17.683Z,0.08
2018-02-18T07:43:17.665Z,0.07
2018-02-18T07:44:17.646Z,0.04
2018-02-18T07:45:17.634Z,0.13
2018-02-18T07:46:17.616Z,0.18
2018-02-18T07:47:38.600Z,0.21
2018-02-18T07:48:17.612Z,0.28
2018-02-18T07:49:17.562Z,0.26
2018-02-18T07:50:17.544Z,0.31
2018-02-18T07:51:17.531Z,0.36
2018-02-18T07:52:17.516Z,0.41
2018-02-18T07:53:38.501Z,0.49
2018-02-18T07:54:17.482Z,0.51
2018-02-18T07:55:17.466Z,0.55
2018-02-18T07:56:17.448Z,0.50
2018-02-18T07:57:17.430Z,0.46
2018-02-18T07:58:17.418Z,0.60
2018-02-18T07:59:38.401Z,0.60
2018-02-18T08:00:17.385Z,0.57
2018-02-18T08:01:17.368Z,0.66
2018-02-18T08:02:17.348Z,0.70
2018-02-18T08:03:17.335Z,0.75
2018-02-18T08:04:17.320Z,0.72
2018-02-18T08:05:38.311Z,0.75
2018-02-18T08:06:17.287Z,0.69
2018-02-18T08:07:17.284Z,0.72
2018-02-18T08:08:17.251Z,0.72
2018-02-18T08:09:17.237Z,0.60
2018-02-18T08:10:17.218Z,0.69
2018-02-18T08:11:38.205Z,0.65
2018-02-18T08:12:17.186Z,0.53
2018-02-18T08:13:17.180Z,0.62
2018-02-18T08:14:17.157Z,0.51
2018-02-18T08:15:17.137Z,0.41
2018-02-18T08:16:17.120Z,0.39
2018-02-18T08:17:38.108Z,0.36
2018-02-18T08:18:17.095Z,0.35
2018-02-18T08:19:17.072Z,0.41
2018-02-18T08:20:17.056Z,0.36
2018-02-18T08:21:17.038Z,0.42
2018-02-18T08:22:17.026Z,0.46
2018-02-18T08:23:38.013Z,0.51
2018-02-18T08:24:16.992Z,0.60
2018-02-18T08:25:16.979Z,0.58
2018-02-18T08:26:16.960Z,0.61
2018-02-18T08:27:16.951Z,0.57
2018-02-18T08:28:16.937Z,0.75
2018-02-18T08:29:37.918Z,0.78
2018-02-18T08:30:16.895Z,0.79
2018-02-18T08:31:16.880Z,0.73
2018-02-18T08:32:16.863Z,0.79
2018-02-18T08:33:16.847Z,0.83
2018-02-18T08:34:16.831Z,0.79
2018-02-18T08:35:37.814Z,0.88
2018-02-18T08:36:16.789Z,0.96
2018-02-18T08:37:16.789Z,0.90
2018-02-18T08:38:16.761Z,0.84
2018-02-18T08:39:16.750Z,0.76
2018-02-18T08:40:16.732Z,0.86
2018-02-18T08:41:37.715Z,0.87
2018-02-18T08:42:16.705Z,0.88
2018-02-18T08:43:16.683Z,0.94
2018-02-18T08:44:16.671Z,0.88
2018-02-18T08:45:16.657Z,0.90
2018-02-18T08:46:16.630Z,0.90
2018-02-18T08:47:37.630Z,0.96
2018-02-18T08:48:16.607Z,0.97
2018-02-18T08:49:16.587Z,1.05
2018-02-18T08:50:16.580Z,1.02
2018-02-18T08:51:16.553Z,0.97
2018-02-18T08:52:16.548Z,1.02
2018-02-18T08:53:37.529Z,1.14
2018-02-18T08:54:16.512Z,1.05
2018-02-18T08:55:16.494Z,1.16
2018-02-18T08:56:16.480Z,0.97
2018-02-18T08:57:16.465Z,1.15
2018-02-18T08:58:16.446Z,1.12
2018-02-18T08:59:37.427Z,1.14
2018-02-18T09:00:16.407Z,1.14
2018-02-18T09:01:16.389Z,1.14
2018-02-18T09:02:16.375Z,1.22
2018-02-18T09:03:16.361Z,1.20
2018-02-18T09:04:16.349Z,1.18
2018-02-18T09:05:37.333Z,1.12
2018-02-18T09:06:16.311Z,1.18
2018-02-18T09:07:16.297Z,1.11
2018-02-18T09:08:16.279Z,1.22
2018-02-18T09:09:16.267Z,1.18
2018-02-18T09:10:16.248Z,1.18
2018-02-18T09:11:37.239Z,1.27
2018-02-18T09:12:16.219Z,1.26
2018-02-18T09:13:16.203Z,1.24
2018-02-18T09:14:16.189Z,1.37
2018-02-18T09:15:16.173Z,1.40
2018-02-18T09:16:16.155Z,1.37
2018-02-18T09:17:37.137Z,1.47
2018-02-18T09:18:16.127Z,1.42
2018-02-18T09:19:16.114Z,2.30
2018-02-18T09:20:16.087Z,2.35
2018-02-18T09:21:16.073Z,2.31
2018-02-18T09:22:16.065Z,2.17
2018-02-18T09:23:37.045Z,2.10
2018-02-18T09:24:16.029Z,2.00
2018-02-18T09:25:16.013Z,2.03
2018-02-18T09:26:16.002Z,1.91
2018-02-18T09:27:15.985Z,1.93
2018-02-18T09:28:15.966Z,1.83
2018-02-18T09:29:37.005Z,1.83
2018-02-18T09:30:15.936Z,1.86
2018-02-18T09:31:15.923Z,1.83
2018-02-18T09:32:15.903Z,1.81
2018-02-18T09:33:15.889Z,1.83
2018-02-18T09:34:15.871Z,1.76
2018-02-18T09:35:36.855Z,1.63
2018-02-18T09:36:15.838Z,1.63
2018-02-18T09:37:15.821Z,1.63
2018-02-18T09:38:15.807Z,1.60
2018-02-18T09:39:15.790Z,1.58
2018-02-18T09:40:15.778Z,1.63
2018-02-18T09:41:36.767Z,1.70
2018-02-18T09:42:15.744Z,1.69
2018-02-18T09:43:15.744Z,1.80
2018-02-18T09:44:15.717Z,1.70
2018-02-18T09:45:15.697Z,1.77
2018-02-18T09:46:15.688Z,1.84
2018-02-18T09:47:36.673Z,1.69
2018-02-18T09:48:15.649Z,1.84
2018-02-18T09:49:15.636Z,1.87
2018-02-18T09:50:15.626Z,1.86
2018-02-18T09:51:15.609Z,1.72
2018-02-18T09:52:15.595Z,1.79
2018-02-18T09:53:36.581Z,1.69
2018-02-18T09:54:15.559Z,1.73
2018-02-18T09:55:15.546Z,1.68
2018-02-18T09:56:15.523Z,1.72
2018-02-18T09:57:15.512Z,1.77
2018-02-18T09:58:15.495Z,1.81
2018-02-18T09:59:36.485Z,1.81
2018-02-18T10:00:15.466Z,1.90
2018-02-18T10:01:15.450Z,1.86
2018-02-18T10:02:15.428Z,1.87
2018-02-18T10:03:15.420Z,1.88
2018-02-18T10:04:15.399Z,1.87
2018-02-18T10:05:36.394Z,1.90
2018-02-18T10:06:15.375Z,1.83
2018-02-18T10:07:15.355Z,1.86
2018-02-18T10:08:15.342Z,1.87
2018-02-18T10:09:15.323Z,1.95
2018-02-18T10:10:15.312Z,1.95
2018-02-18T10:11:36.300Z,1.95
2018-02-18T10:12:15.281Z,1.95
2018-02-18T10:13:15.265Z,2.00
2018-02-18T10:14:15.288Z,2.07
2018-02-18T10:15:15.240Z,2.06
2018-02-18T10:16:15.215Z,2.09
2018-02-18T10:17:36.198Z,2.12
2018-02-18T10:18:15.186Z,2.17
2018-02-18T10:19:15.172Z,2.03
2018-02-18T10:20:15.155Z,2.02
2018-02-18T10:21:15.135Z,1.93
2018-02-18T10:22:15.131Z,1.86
2018-02-18T10:23:36.110Z,1.79
2018-02-18T10:24:15.092Z,1.80
2018-02-18T10:25:15.158Z,1.77
2018-02-18T10:26:15.067Z,1.73
2018-02-18T10:27:15.046Z,1.73
2018-02-18T10:28:15.032Z,1.79
2018-02-18T10:29:36.017Z,1.66
2018-02-18T10:30:14.999Z,1.70
2018-02-18T10:31:14.987Z,1.58
2018-02-18T10:32:14.970Z,1.66
2018-02-18T10:33:14.955Z,1.73
2018-02-18T10:34:14.952Z,1.65
2018-02-18T10:35:35.924Z,1.68
2018-02-18T10:36:14.910Z,1.60
2018-02-18T10:37:14.887Z,1.68
2018-02-18T10:38:14.880Z,1.70
2018-02-18T10:39:14.865Z,1.58
2018-02-18T10:40:14.845Z,1.52
2018-02-18T10:41:35.831Z,1.50
2018-02-18T10:42:14.816Z,1.50
2018-02-18T10:43:14.797Z,1.42
2018-02-18T10:44:14.783Z,1.58
2018-02-18T10:45:14.768Z,1.50
2018-02-18T10:46:14.750Z,1.62
2018-02-18T10:47:35.739Z,1.51
2018-02-18T10:48:14.717Z,1.51
2018-02-18T10:49:14.709Z,1.60
2018-02-18T10:50:14.688Z,1.72
2018-02-18T10:51:14.670Z,1.84
2018-02-18T10:52:14.659Z,1.87
2018-02-18T10:53:35.642Z,1.90
2018-02-18T10:54:14.655Z,1.93
2018-02-18T10:55:14.614Z,2.05
2018-02-18T10:56:14.593Z,2.16
2018-02-18T10:57:14.573Z,2.21
2018-02-18T10:58:14.567Z,2.17
2018-02-18T10:59:35.550Z,2.42
2018-02-18T11:00:14.529Z,2.46
2018-02-18T11:01:14.515Z,2.54
2018-02-18T11:02:14.502Z,2.54
2018-02-18T11:03:14.487Z,2.60
2018-02-18T11:04:14.467Z,2.63
2018-02-18T11:05:35.459Z,2.64
2018-02-18T11:06:14.440Z,2.64
2018-02-18T11:07:14.425Z,2.67
2018-02-18T11:08:14.408Z,2.69
2018-02-18T11:09:14.395Z,2.66
2018-02-18T11:10:14.378Z,2.66
2018-02-18T11:11:35.365Z,2.63
2018-02-18T11:12:14.351Z,2.61
2018-02-18T11:13:14.331Z,2.69
2018-02-18T11:14:14.324Z,2.69
2018-02-18T11:15:14.303Z,2.81
2018-02-18T11:16:14.288Z,2.75
2018-02-18T11:17:35.275Z,2.74
2018-02-18T11:18:14.260Z,2.77
2018-02-18T11:19:14.245Z,2.79
2018-02-18T11:20:14.226Z,2.72
2018-02-18T11:21:14.213Z,2.78
2018-02-18T11:22:14.196Z,2.72
2018-02-18T11:23:35.183Z,2.69
2018-02-18T11:24:14.163Z,2.77
2018-02-18T11:25:14.153Z,2.78
2018-02-18T11:26:14.139Z,2.87
2018-02-18T11:27:14.120Z,2.95
2018-02-18T11:28:14.102Z,3.02
2018-02-18T11:29:35.096Z,3.02
2018-02-18T11:30:14.081Z,3.06
2018-02-18T11:31:14.062Z,3.06
2018-02-18T11:32:14.046Z,3.00
2018-02-18T11:33:14.036Z,3.06
2018-02-18T11:34:14.017Z,3.14
2018-02-18T11:35:35.008Z,3.10
2018-02-18T11:36:13.990Z,3.23
2018-02-18T11:37:13.976Z,3.18
2018-02-18T11:38:13.958Z,3.17
2018-02-18T11:39:13.945Z,3.17
2018-02-18T11:40:13.927Z,3.11
2018-02-18T11:41:34.923Z,3.06
2018-02-18T11:42:13.942Z,3.06
2018-02-18T11:43:13.887Z,3.14
2018-02-18T11:44:13.880Z,3.18
2018-02-18T11:45:13.849Z,3.18
2018-02-18T11:46:13.846Z,3.10
2018-02-18T11:47:34.828Z,3.10
2018-02-18T11:48:13.814Z,2.99
2018-02-18T11:49:13.797Z,3.03
2018-02-18T11:50:13.779Z,3.00
2018-02-18T11:51:13.765Z,3.10
2018-02-18T11:52:13.754Z,3.13
2018-02-18T11:53:34.741Z,3.11
2018-02-18T11:54:13.723Z,3.13
2018-02-18T11:55:13.708Z,3.20
2018-02-18T11:56:13.690Z,3.18
2018-02-18T11:57:13.677Z,3.10
2018-02-18T11:58:13.659Z,3.14
2018-02-18T11:59:34.649Z,3.05
2018-02-18T12:00:13.637Z,3.05
2018-02-18T12:01:13.618Z,3.00
2018-02-18T12:02:13.599Z,3.02
2018-02-18T12:03:13.593Z,3.02
2018-02-18T12:04:13.574Z,2.97
2018-02-18T12:05:34.562Z,3.05
2018-02-18T12:06:13.547Z,3.06
2018-02-18T12:07:13.529Z,3.08
2018-02-18T12:08:13.518Z,3.08
2018-02-18T12:09:13.501Z,3.24
2018-02-18T12:10:13.485Z,3.26
2018-02-18T12:11:34.475Z,3.23
2018-02-18T12:12:13.455Z,3.36
2018-02-18T12:13:13.449Z,3.28
2018-02-18T12:14:13.431Z,3.35
2018-02-18T12:15:13.413Z,3.26
2018-02-18T12:16:13.408Z,3.23
2018-02-18T12:17:34.387Z,3.24
2018-02-18T12:18:13.372Z,3.21
2018-02-18T12:19:13.358Z,3.17
2018-02-18T12:20:13.347Z,3.14
2018-02-18T12:21:13.338Z,3.18
2018-02-18T12:22:13.312Z,3.15
2018-02-18T12:23:34.304Z,3.10
2018-02-18T12:24:13.287Z,3.06
2018-02-18T12:25:13.266Z,3.02
2018-02-18T12:26:13.262Z,3.05
2018-02-18T12:27:13.241Z,3.08
2018-02-18T12:28:13.228Z,3.08
2018-02-18T12:29:34.215Z,3.06
2018-02-18T12:30:13.194Z,3.14
2018-02-18T12:31:13.192Z,3.26
2018-02-18T12:32:13.169Z,3.24
2018-02-18T12:33:13.154Z,3.31
2018-02-18T12:34:13.138Z,3.40
2018-02-18T12:35:34.132Z,3.43
2018-02-18T12:36:13.109Z,3.47
2018-02-18T12:37:13.093Z,3.40
2018-02-18T12:38:13.081Z,3.42
2018-02-18T12:39:13.070Z,3.42
2018-02-18T12:40:13.048Z,3.40
2018-02-18T12:41:34.042Z,3.45
2018-02-18T12:42:13.029Z,3.57
2018-02-18T12:43:13.012Z,3.57
2018-02-18T12:44:12.992Z,3.58
2018-02-18T12:45:12.979Z,3.43
2018-02-18T12:46:12.966Z,3.40
2018-02-18T12:47:33.960Z,3.40
2018-02-18T12:48:12.932Z,3.43
2018-02-18T12:49:12.920Z,3.43
2018-02-18T12:50:12.908Z,3.42
2018-02-18T12:51:12.892Z,3.39
2018-02-18T12:52:12.879Z,3.39
2018-02-18T12:53:33.870Z,3.33
2018-02-18T12:54:12.852Z,3.35
2018-02-18T12:55:12.828Z,3.28
2018-02-18T12:56:12.822Z,3.31
2018-02-18T12:57:12.804Z,3.33
2018-02-18T12:58:12.796Z,3.33
2018-02-18T12:59:33.780Z,3.45
2018-02-18T13:00:12.763Z,3.36
2018-02-18T13:01:12.741Z,3.32
2018-02-18T13:02:12.729Z,3.42
2018-02-18T13:03:12.718Z,3.52
2018-02-18T13:04:12.711Z,3.55
2018-02-18T13:05:33.695Z,3.57
2018-02-18T13:06:12.676Z,3.54
2018-02-18T13:07:12.662Z,3.62
2018-02-18T13:08:12.645Z,3.48
2018-02-18T13:09:12.630Z,3.58
2018-02-18T13:10:12.618Z,3.55
2018-02-18T13:11:33.602Z,3.61
2018-02-18T13:12:12.591Z,3.57
2018-02-18T13:13:12.575Z,3.52
2018-02-18T13:14:12.560Z,3.65
2018-02-18T13:15:12.549Z,3.58
2018-02-18T13:16:12.532Z,3.52